createdAt,value
2019-02-07T00:00:44.135Z,2.00
2019-02-07T00:10:49.620Z,2.00
2019-02-07T00:20:54.977Z,2.00
2019-02-07T00:31:00.193Z,1.70
2019-02-07T00:41:05.693Z,1.70
2019-02-07T00:51:11.028Z,1.60
2019-02-07T01:01:16.430Z,1.60
2019-02-07T01:11:21.786Z,1.40
2019-02-07T01:21:27.302Z,1.20
2019-02-07T01:31:32.618Z,1.10
2019-02-07T01:41:38.003Z,1.00
2019-02-07T01:51:43.319Z,0.90
2019-02-07T02:01:48.690Z,0.80
2019-02-07T02:11:55.537Z,0.70
2019-02-07T02:22:00.874Z,0.60
2019-02-07T02:32:06.241Z,0.50
2019-02-07T02:42:11.631Z,0.50
2019-02-07T02:52:16.951Z,0.40
2019-02-07T03:02:47.078Z,0.40
2019-02-07T03:13:11.269Z,0.40
2019-02-07T03:23:34.335Z,0.40
2019-02-07T03:34:01.657Z,0.30
2019-02-07T03:44:24.121Z,0.30
2019-02-07T03:55:06.368Z,0.20
2019-02-07T04:05:36.785Z,0.10
2019-02-07T04:15:55.429Z,0.00
2019-02-07T04:26:28.455Z,-0.10
2019-02-07T04:36:43.577Z,-0.10
2019-02-07T04:47:17.475Z,-0.20
2019-02-07T04:57:30.675Z,-0.20
2019-02-07T05:07:53.832Z,-0.20
2019-02-07T05:18:27.289Z,-0.10
2019-02-07T05:28:51.543Z,-0.10
2019-02-07T05:39:18.753Z,0.00
2019-02-07T05:49:41.845Z,0.10
2019-02-07T06:00:06.813Z,0.20
2019-02-07T06:10:29.835Z,0.40
2019-02-07T06:21:00.112Z,0.50
2019-02-07T06:31:14.400Z,0.60
2019-02-07T06:41:41.348Z,0.70
2019-02-07T06:52:09.364Z,0.90
2019-02-07T07:02:32.172Z,1.70
2019-02-07T07:12:59.114Z,2.50
2019-02-07T07:23:31.076Z,2.90
2019-02-07T07:33:58.218Z,4.00
2019-02-07T07:44:17.658Z,4.80
2019-02-07T07:54:51.016Z,5.60
2019-02-07T08:05:13.907Z,6.10
2019-02-07T08:15:44.506Z,6.30
2019-02-07T08:26:08.876Z,6.40
2019-02-07T08:36:31.644Z,6.50
2019-02-07T08:46:59.051Z,6.90
2019-02-07T08:57:29.739Z,6.70
2019-02-07T09:07:52.948Z,6.70
2019-02-07T09:18:17.451Z,6.70
2019-02-07T09:28:40.316Z,6.80
2019-02-07T09:39:08.822Z,7.20
2019-02-07T09:49:30.930Z,7.70
2019-02-07T09:59:53.665Z,8.00
2019-02-07T10:10:26.923Z,8.10
2019-02-07T10:20:49.585Z,8.10
2019-02-07T10:31:13.442Z,8.00
2019-02-07T10:41:44.209Z,7.70
2019-02-07T10:52:14.793Z,7.70
2019-02-07T11:02:52.815Z,7.70
2019-02-07T11:13:24.664Z,7.40
2019-02-07T11:23:47.447Z,7.20
2019-02-07T11:34:16.550Z,7.20
2019-02-07T11:44:39.107Z,7.40
2019-02-07T11:55:18.730Z,7.50
2019-02-07T12:05:41.493Z,7.90
2019-02-07T12:16:04.615Z,7.80
2019-02-07T12:26:24.232Z,7.80
2019-02-07T12:36:49.299Z,7.80
2019-02-07T12:47:27.717Z,7.90
2019-02-07T12:57:50.739Z,7.70
2019-02-07T13:08:30.038Z,7.60
2019-02-07T13:19:02.005Z,7.70
2019-02-07T13:29:27.622Z,7.50
2019-02-07T13:39:51.939Z,7.40
2019-02-07T13:50:25.213Z,7.20
2019-02-07T14:01:07.623Z,7.10
2019-02-07T14:11:49.709Z,7.00
2019-02-07T14:22:12.446Z,7.00
2019-02-07T14:32:43.528Z,6.90
2019-02-07T14:43:02.014Z,6.90
2019-02-07T14:53:07.320Z,6.80
2019-02-07T15:03:12.716Z,6.70
2019-02-07T15:13:18.411Z,6.50
2019-02-07T15:23:23.801Z,6.30
2019-02-07T15:33:29.385Z,6.00
2019-02-07T15:43:35.275Z,5.80
2019-02-07T15:53:41.011Z,5.50
2019-02-07T16:03:58.107Z,5.30
2019-02-07T16:14:03.985Z,5.20
2019-02-07T16:24:09.523Z,5.00
2019-02-07T16:34:15.011Z,4.90
2019-02-07T16:44:20.653Z,4.80
2019-02-07T16:54:26.571Z,4.70
2019-02-07T17:04:31.899Z,4.60
2019-02-07T17:14:37.470Z,4.50
2019-02-07T17:24:42.831Z,4.30
2019-02-07T17:34:48.275Z,4.20
2019-02-07T17:44:53.695Z,4.10
2019-02-07T17:54:59.031Z,4.00
2019-02-07T18:05:06.181Z,4.00
2019-02-07T18:15:11.667Z,4.00
2019-02-07T18:25:17.421Z,4.00
2019-02-07T18:35:23.089Z,4.00
2019-02-07T18:45:28.384Z,4.00
2019-02-07T18:55:33.801Z,3.90
2019-02-07T19:05:39.685Z,3.80
2019-02-07T19:15:47.819Z,3.70
2019-02-07T19:25:53.203Z,3.60
2019-02-07T19:35:58.627Z,3.50
2019-02-07T19:46:03.832Z,3.50
2019-02-07T19:56:09.152Z,3.50
2019-02-07T20:06:15.500Z,3.40
2019-02-07T20:16:21.828Z,3.30
2019-02-07T20:26:27.078Z,3.30
2019-02-07T20:36:32.461Z,3.20
2019-02-07T20:46:37.732Z,3.20
2019-02-07T20:56:43.266Z,3.10
2019-02-07T21:06:49.376Z,3.00
2019-02-07T21:16:55.019Z,3.00
2019-02-07T21:27:00.582Z,2.80
2019-02-07T21:37:06.200Z,2.70
2019-02-07T21:47:11.657Z,2.60
2019-02-07T21:57:17.236Z,2.40
2019-02-07T22:07:22.528Z,2.30
2019-02-07T22:17:28.185Z,2.20
2019-02-07T22:27:33.875Z,2.10
2019-02-07T22:37:39.291Z,2.20
2019-02-07T22:47:44.769Z,2.20
2019-02-07T22:57:50.153Z,2.10
2019-02-07T23:07:55.513Z,2.00
2019-02-07T23:18:00.836Z,1.90
2019-02-07T23:28:06.938Z,2.00
2019-02-07T23:38:12.315Z,2.00
2019-02-07T23:48:17.867Z,2.10
2019-02-07T23:58:23.330Z,2.40
